KRKD

Knox County Regional Airport

Rockland, Maine, USA
METAR KRKD 252156Z AUTO 24006KT 10SM BKN090 23/12 A2962 RMK AO2 SLP030 T02280117
Observed Flight Rules
May-25 @ 21:56 UTC (37 minutes ago) Visual Flight Rules
Wind Visibility Clouds
240° at 6 knots 10 miles
  • Broken at 9,000' AGL
Temperatures Readings
Current 23°C / 73°F
Dewpoint 12°C / 54°F
Humidity 50%
Altimeter 29.62" Hg
Pressure 1003 hPa
Elevation 17
METAR KRKD 252156Z AUTO 24006KT 10SM BKN090 23/12 A2962 RMK AO2 SLP030 T02280117
Observed Flight Rules
May-25 @ 21:56 UTC
(37 minutes ago)
VFR
Wind Visibility
240° at 6 knots 10 miles
Clouds
  • Broken at 9,000' AGL
Temperature Dewpoint
23°C / 73°F 12°C / 54°F
Humidity Altimeter Pressure
50% 29.62" Hg 1003 hPa